Time;durP1;ratioP1;P1;durP2;ratioP2;P2;SDS_P1;SDS_P2;PMS_P1;PMS_P2;Temp;Humidity;BMP_temperature;BMP_pressure;BME280_temperature;BME280_humidity;BME280_pressure;Samples;Min_cycle;Max_cycle;Signal;HPM_P1;HPM_P2
2023/03/11 00:00:54;;;;;;;5.70;1.40;;;;;;;;;;5078721;27;98814;-77
2023/03/11 00:03:24;;;;;;;4.45;1.55;;;;;;;;;;5043908;27;100860;-76
2023/03/11 00:05:51;;;;;;;4.68;1.48;;;;;;;;;;5078447;27;99188;-77
2023/03/11 00:08:19;;;;;;;7.05;1.70;;;;;;;;;;5079128;27;98324;-76
2023/03/11 00:10:47;;;;;;;5.18;1.40;;;;;;;;;;5078314;27;98529;-76
2023/03/11 00:13:14;;;;;;;3.85;1.35;;;;;;;;;;5078724;27;99189;-77
2023/03/11 00:15:41;;;;;;;3.80;1.40;;;;;;;;;;5063419;27;98455;-77
2023/03/11 00:18:08;;;;;;;5.38;1.52;;;;;;;;;;5041676;27;102051;-77
2023/03/11 00:20:36;;;;;;;5.38;1.63;;;;;;;;;;5059336;27;98614;-77
2023/03/11 00:23:03;;;;;;;3.72;1.40;;;;;;;;;;5048026;27;99887;-76
2023/03/11 00:25:31;;;;;;;4.53;1.40;;;;;;;;;;5078702;27;98741;-77
2023/03/11 00:27:58;;;;;;;4.55;1.20;;;;;;;;;;5077591;27;98073;-77
2023/03/11 00:30:26;;;;;;;4.15;1.40;;;;;;;;;;5043200;27;98379;-77
2023/03/11 00:32:55;;;;;;;5.35;1.85;;;;;;;;;;5059020;27;103555;-76
2023/03/11 00:35:23;;;;;;;4.53;1.42;;;;;;;;;;5059685;27;97674;-77
2023/03/11 00:37:52;;;;;;;5.60;2.00;;;;;;;;;;5072083;27;98718;-77
2023/03/11 00:40:20;;;;;;;5.10;1.92;;;;;;;;;;5078619;27;98581;-77
2023/03/11 00:42:46;;;;;;;3.58;1.40;;;;;;;;;;5075163;27;99573;-77
2023/03/11 00:45:13;;;;;;;5.88;1.50;;;;;;;;;;5078023;27;98773;-77
2023/03/11 00:47:40;;;;;;;9.15;1.70;;;;;;;;;;5060750;27;98792;-76
2023/03/11 00:50:08;;;;;;;;;;;;;;;;;;5078514;27;100442;-76
2023/03/11 00:52:34;;;;;;;5.25;1.70;;;;;;;;;;5059358;27;98827;-76
2023/03/11 00:55:01;;;;;;;5.47;1.50;;;;;;;;;;5059621;27;98592;-77
2023/03/11 00:57:28;;;;;;;4.85;1.40;;;;;;;;;;5062883;27;101317;-75
2023/03/11 00:59:55;;;;;;;4.68;1.67;;;;;;;;;;5059572;27;97449;-76
2023/03/11 01:02:23;;;;;;;5.40;1.73;;;;;;;;;;5059432;27;105282;-76
2023/03/11 01:04:54;;;;;;;4.78;1.50;;;;;;;;;;5041296;27;101135;-77
2023/03/11 01:07:21;;;;;;;5.63;1.70;;;;;;;;;;5057084;27;99574;-78
2023/03/11 01:09:47;;;;;;;5.15;1.50;;;;;;;;;;5042426;27;101288;-77
2023/03/11 01:12:13;;;;;;;6.10;1.85;;;;;;;;;;5059015;27;101576;-78
2023/03/11 01:14:40;;;;;;;4.30;1.30;;;;;;;;;;5076970;27;98812;-77
2023/03/11 01:17:07;;;;;;;5.10;1.50;;;;;;;;;;5058757;27;100558;-78
2023/03/11 01:19:34;;;;;;;4.28;1.45;;;;;;;;;;5080681;27;98789;-78
2023/03/11 01:22:00;;;;;;;3.72;1.38;;;;;;;;;;5059158;27;98899;-77
2023/03/11 01:24:27;;;;;;;3.85;1.38;;;;;;;;;;5077518;27;98112;-77
2023/03/11 01:26:53;;;;;;;5.88;1.50;;;;;;;;;;5049620;27;98265;-77
2023/03/11 01:29:22;;;;;;;4.55;1.38;;;;;;;;;;5077463;27;99740;-76
2023/03/11 01:31:48;;;;;;;4.97;1.55;;;;;;;;;;5075780;27;99564;-76
2023/03/11 01:34:15;;;;;;;4.80;1.52;;;;;;;;;;5041691;27;98347;-78
2023/03/11 01:36:41;;;;;;;4.93;1.80;;;;;;;;;;5075797;27;98722;-76
2023/03/11 01:39:08;;;;;;;4.50;1.50;;;;;;;;;;5076528;27;105742;-76
2023/03/11 01:41:34;;;;;;;5.15;1.30;;;;;;;;;;5062327;27;98649;-77
2023/03/11 01:44:03;;;;;;;6.07;1.42;;;;;;;;;;5058545;27;100773;-77
2023/03/11 01:46:50;;;;;;;9.98;1.55;;;;;;;;;;5057555;27;98526;-77
2023/03/11 01:49:20;;;;;;;5.97;1.42;;;;;;;;;;5047023;27;100661;-77
2023/03/11 01:51:50;;;;;;;4.78;1.40;;;;;;;;;;5058152;27;101222;-77
2023/03/11 01:54:19;;;;;;;4.93;1.42;;;;;;;;;;5058826;27;98486;-77
2023/03/11 01:56:47;;;;;;;2.80;1.10;;;;;;;;;;5075643;27;99036;-77
2023/03/11 01:59:16;;;;;;;5.18;1.40;;;;;;;;;;5058502;27;99072;-76
2023/03/11 02:01:47;;;;;;;5.40;1.30;;;;;;;;;;5050977;27;98808;-76
2023/03/11 02:04:14;;;;;;;5.55;1.20;;;;;;;;;;5044644;27;98919;-77
2023/03/11 02:06:41;;;;;;;3.95;1.30;;;;;;;;;;5057057;27;98198;-77
2023/03/11 02:09:07;;;;;;;3.40;1.15;;;;;;;;;;5041699;27;100610;-78
2023/03/11 02:11:34;;;;;;;4.28;1.35;;;;;;;;;;5046436;27;99902;-76
2023/03/11 02:14:02;;;;;;;5.05;1.30;;;;;;;;;;5058708;27;97783;-77
2023/03/11 02:16:29;;;;;;;3.10;1.30;;;;;;;;;;5076178;27;98538;-77
2023/03/11 02:18:57;;;;;;;4.95;1.30;;;;;;;;;;5076391;27;98854;-76
2023/03/11 02:21:28;;;;;;;4.65;1.10;;;;;;;;;;5071739;27;98902;-77
2023/03/11 02:23:58;;;;;;;3.97;1.20;;;;;;;;;;5061594;27;99451;-77
2023/03/11 02:26:42;;;;;;;2.97;1.10;;;;;;;;;;5058029;27;98617;-77
2023/03/11 02:29:10;;;;;;;1.92;1.10;;;;;;;;;;5076362;27;102674;-76
2023/03/11 02:31:37;;;;;;;3.65;1.40;;;;;;;;;;5056528;27;98978;-77
2023/03/11 02:34:10;;;;;;;4.15;1.15;;;;;;;;;;5058314;27;98387;-76
2023/03/11 02:36:38;;;;;;;4.35;1.45;;;;;;;;;;5039420;27;101239;-76
2023/03/11 02:39:08;;;;;;;3.58;1.20;;;;;;;;;;5057758;27;98952;-77
2023/03/11 02:41:37;;;;;;;3.97;1.13;;;;;;;;;;5057171;27;98497;-77
2023/03/11 02:44:06;;;;;;;2.45;1.10;;;;;;;;;;5057908;27;101221;-77
2023/03/11 02:46:34;;;;;;;3.20;1.27;;;;;;;;;;5077513;27;101331;-78
2023/03/11 02:49:00;;;;;;;19.25;1.70;;;;;;;;;;5062686;27;99476;-77
2023/03/11 02:51:27;;;;;;;4.68;1.13;;;;;;;;;;5057171;27;101810;-78
2023/03/11 02:53:56;;;;;;;5.72;1.20;;;;;;;;;;5058148;27;98236;-76
2023/03/11 02:56:22;;;;;;;2.97;1.08;;;;;;;;;;5057334;27;98477;-76
2023/03/11 02:58:49;;;;;;;4.50;1.20;;;;;;;;;;5057078;27;101642;-77
2023/03/11 03:01:15;;;;;;;3.20;1.10;;;;;;;;;;5057758;27;98268;-78
2023/03/11 03:03:43;;;;;;;3.13;1.00;;;;;;;;;;5058937;27;101164;-76
2023/03/11 03:06:10;;;;;;;2.53;1.10;;;;;;;;;;5057349;27;101740;-78
2023/03/11 03:08:37;;;;;;;4.65;1.10;;;;;;;;;;5060038;27;98838;-77
2023/03/11 03:11:04;;;;;;;2.92;1.00;;;;;;;;;;5056350;27;102023;-75
2023/03/11 03:13:31;;;;;;;3.40;1.10;;;;;;;;;;5056992;27;99037;-77
2023/03/11 03:15:58;;;;;;;2.08;0.98;;;;;;;;;;5057073;27;100677;-77
2023/03/11 03:18:24;;;;;;;4.75;1.17;;;;;;;;;;5075385;27;98716;-76
2023/03/11 03:20:51;;;;;;;3.97;1.20;;;;;;;;;;5048823;27;98259;-76
2023/03/11 03:23:18;;;;;;;3.33;1.02;;;;;;;;;;5059594;27;98492;-76
2023/03/11 03:25:44;;;;;;;4.07;1.00;;;;;;;;;;5060508;27;101796;-76
2023/03/11 03:28:12;;;;;;;3.25;0.90;;;;;;;;;;5079737;27;97646;-75
2023/03/11 03:30:42;;;;;;;4.32;1.05;;;;;;;;;;5062952;27;100343;-75
2023/03/11 03:33:09;;;;;;;4.20;1.10;;;;;;;;;;5061032;27;98823;-76
2023/03/11 03:35:39;;;;;;;3.83;1.00;;;;;;;;;;5060301;27;100518;-76
2023/03/11 03:38:08;;;;;;;2.97;0.93;;;;;;;;;;5060071;27;101192;-76
2023/03/11 03:40:37;;;;;;;2.78;1.00;;;;;;;;;;5058546;27;98701;-76
2023/03/11 03:43:04;;;;;;;1.75;0.80;;;;;;;;;;5060431;27;101464;-75
2023/03/11 03:45:33;;;;;;;3.67;0.98;;;;;;;;;;5043558;27;100205;-76
2023/03/11 03:47:59;;;;;;;3.45;1.10;;;;;;;;;;5060761;27;98507;-77
2023/03/11 03:50:29;;;;;;;3.17;1.00;;;;;;;;;;5059965;27;101317;-78
2023/03/11 03:52:56;;;;;;;1.58;0.80;;;;;;;;;;5044750;27;100103;-77
2023/03/11 03:55:22;;;;;;;5.22;1.08;;;;;;;;;;5060466;27;100446;-76
2023/03/11 03:57:50;;;;;;;2.47;1.00;;;;;;;;;;5059976;27;101796;-75
2023/03/11 04:00:18;;;;;;;3.47;1.20;;;;;;;;;;5043576;27;99129;-76
2023/03/11 04:02:51;;;;;;;3.40;1.00;;;;;;;;;;5059436;27;101743;-76
2023/03/11 04:05:26;;;;;;;2.80;0.98;;;;;;;;;;5044259;27;101493;-77
2023/03/11 04:07:54;;;;;;;2.00;0.80;;;;;;;;;;5043522;27;98593;-76
2023/03/11 04:10:21;;;;;;;2.20;0.90;;;;;;;;;;5043410;27;101386;-76
2023/03/11 04:12:48;;;;;;;2.72;0.95;;;;;;;;;;5055175;27;101989;-76
2023/03/11 04:15:14;;;;;;;1.85;1.00;;;;;;;;;;5063466;27;98666;-77
2023/03/11 04:17:42;;;;;;;1.67;0.90;;;;;;;;;;5059792;27;100769;-77
2023/03/11 04:20:09;;;;;;;2.25;0.90;;;;;;;;;;5083743;27;98798;-76
2023/03/11 04:22:36;;;;;;;2.53;0.90;;;;;;;;;;5059132;27;101231;-77
2023/03/11 04:25:03;;;;;;;5.22;1.00;;;;;;;;;;5077473;27;99549;-76
2023/03/11 04:27:31;;;;;;;;;;;;;;;;;;5060604;27;98199;-76
2023/03/11 04:29:57;;;;;;;5.43;1.20;;;;;;;;;;5061762;27;112509;-76
2023/03/11 04:32:24;;;;;;;6.55;1.15;;;;;;;;;;5070523;27;101548;-76
2023/03/11 04:34:50;;;;;;;6.50;1.08;;;;;;;;;;5059105;27;98334;-76
2023/03/11 04:37:17;;;;;;;3.70;1.00;;;;;;;;;;5058843;27;103196;-75
2023/03/11 04:39:43;;;;;;;4.93;1.23;;;;;;;;;;5059015;27;99211;-76
2023/03/11 04:42:12;;;;;;;3.10;0.88;;;;;;;;;;5059885;27;100864;-75
2023/03/11 04:44:41;;;;;;;9.95;1.17;;;;;;;;;;5058607;27;98801;-75
2023/03/11 04:47:07;;;;;;;4.72;1.00;;;;;;;;;;5059105;27;98263;-75
2023/03/11 04:49:34;;;;;;;5.50;0.95;;;;;;;;;;5042216;27;100953;-74
2023/03/11 04:52:01;;;;;;;3.30;1.10;;;;;;;;;;5059200;27;101341;-75
2023/03/11 04:54:28;;;;;;;4.75;1.13;;;;;;;;;;5059415;27;98562;-76
2023/03/11 04:56:55;;;;;;;1.90;0.80;;;;;;;;;;5043089;27;98557;-75
2023/03/11 04:59:22;;;;;;;4.13;1.10;;;;;;;;;;5059322;27;98219;-76
2023/03/11 05:01:50;;;;;;;3.33;1.00;;;;;;;;;;5078117;27;99216;-75
2023/03/11 05:04:16;;;;;;;2.97;0.90;;;;;;;;;;5058738;27;101083;-75
2023/03/11 05:06:43;;;;;;;3.55;0.90;;;;;;;;;;5042599;27;97836;-76
2023/03/11 05:09:10;;;;;;;3.67;0.90;;;;;;;;;;5042769;27;100138;-76
2023/03/11 05:11:38;;;;;;;3.13;0.85;;;;;;;;;;5058686;27;101462;-76
2023/03/11 05:14:05;;;;;;;3.60;1.02;;;;;;;;;;5062268;27;99538;-76
2023/03/11 05:16:32;;;;;;;2.38;0.90;;;;;;;;;;5037896;27;101567;-76
2023/03/11 05:18:58;;;;;;;3.30;1.00;;;;;;;;;;5057035;27;99110;-76
2023/03/11 05:21:25;;;;;;;3.63;1.10;;;;;;;;;;5069004;27;100513;-77
2023/03/11 05:23:51;;;;;;;3.55;1.02;;;;;;;;;;5058439;27;101892;-76
2023/03/11 05:26:18;;;;;;;5.45;0.85;;;;;;;;;;5077390;27;98220;-76
2023/03/11 05:28:45;;;;;;;2.70;0.80;;;;;;;;;;5058550;27;98977;-77
2023/03/11 05:31:12;;;;;;;2.83;0.90;;;;;;;;;;5033695;27;100478;-76
2023/03/11 05:33:39;;;;;;;2.85;0.82;;;;;;;;;;5059003;27;98306;-76
2023/03/11 05:36:09;;;;;;;2.88;0.90;;;;;;;;;;5058504;27;100736;-76
2023/03/11 05:38:39;;;;;;;1.75;0.80;;;;;;;;;;5057185;27;99864;-77
2023/03/11 05:41:06;;;;;;;3.08;0.90;;;;;;;;;;5061277;27;98472;-77
2023/03/11 05:43:33;;;;;;;2.47;0.80;;;;;;;;;;5058697;27;100835;-76
2023/03/11 05:46:00;;;;;;;2.30;0.80;;;;;;;;;;5058177;27;98631;-76
2023/03/11 05:48:26;;;;;;;3.08;0.82;;;;;;;;;;5058385;27;98755;-75
2023/03/11 05:50:53;;;;;;;5.13;0.90;;;;;;;;;;5057341;27;101504;-77
2023/03/11 05:53:20;;;;;;;4.68;1.20;;;;;;;;;;5058789;27;98438;-76
2023/03/11 05:55:54;;;;;;;2.22;0.80;;;;;;;;;;5058666;27;98877;-75
2023/03/11 05:58:21;;;;;;;4.50;0.90;;;;;;;;;;5076809;27;98719;-75
2023/03/11 06:00:48;;;;;;;3.53;0.90;;;;;;;;;;5079643;27;98300;-75
2023/03/11 06:03:14;;;;;;;7.03;1.42;;;;;;;;;;5079528;27;98791;-75
2023/03/11 06:05:47;;;;;;;6.13;0.98;;;;;;;;;;5058481;27;98650;-75
2023/03/11 06:08:14;;;;;;;5.80;1.20;;;;;;;;;;5076794;27;98393;-75
2023/03/11 06:10:41;;;;;;;2.90;0.90;;;;;;;;;;5056765;27;101447;-75
2023/03/11 06:13:08;;;;;;;3.67;0.77;;;;;;;;;;5057828;27;98313;-75
2023/03/11 06:15:41;;;;;;;;;;;;;;;;;;5057845;27;100575;-76
2023/03/11 06:18:08;;;;;;;1.73;0.70;;;;;;;;;;5057365;27;127249;-75
2023/03/11 06:20:35;;;;;;;3.00;0.80;;;;;;;;;;5057063;27;97668;-75
2023/03/11 06:23:01;;;;;;;1.17;0.70;;;;;;;;;;5075705;27;98224;-75
2023/03/11 06:25:28;;;;;;;2.78;0.85;;;;;;;;;;5059940;27;98889;-75
2023/03/11 06:27:55;;;;;;;5.68;0.95;;;;;;;;;;5056947;27;100887;-76
2023/03/11 06:30:22;;;;;;;;;;;;;;;;;;5057649;27;100904;-76
2023/03/11 06:32:58;;;;;;;2.35;0.68;;;;;;;;;;5058370;27;98561;-75
2023/03/11 06:35:24;;;;;;;3.05;0.88;;;;;;;;;;5057322;27;99442;-75
2023/03/11 06:37:51;;;;;;;8.38;1.05;;;;;;;;;;5056256;27;100981;-75
2023/03/11 06:40:17;;;;;;;4.45;1.13;;;;;;;;;;5055891;27;98213;-76
2023/03/11 06:42:47;;;;;;;4.38;1.30;;;;;;;;;;5056362;27;101079;-76
2023/03/11 06:45:14;;;;;;;3.65;1.30;;;;;;;;;;5060925;27;99924;-76
2023/03/11 06:47:42;;;;;;;4.30;1.20;;;;;;;;;;5056970;27;99653;-76
2023/03/11 06:50:09;;;;;;;3.88;1.40;;;;;;;;;;5057133;27;100703;-75
2023/03/11 06:52:35;;;;;;;8.93;1.90;;;;;;;;;;5055674;27;99492;-76
2023/03/11 06:55:03;;;;;;;;;;;;;;;;;;5054610;27;101944;-76
2023/03/11 06:57:31;;;;;;;2.67;1.10;;;;;;;;;;5055412;27;101293;-76
2023/03/11 07:00:01;;;;;;;3.33;1.23;;;;;;;;;;5065672;27;98111;-76
2023/03/11 07:02:28;;;;;;;4.50;1.33;;;;;;;;;;5079890;27;99238;-76
2023/03/11 07:04:55;;;;;;;3.40;1.20;;;;;;;;;;5068270;27;101111;-78
2023/03/11 07:07:22;;;;;;;3.33;1.30;;;;;;;;;;5082088;27;98224;-76
2023/03/11 07:09:48;;;;;;;4.30;1.35;;;;;;;;;;5060722;27;100276;-76
2023/03/11 07:12:16;;;;;;;5.60;1.20;;;;;;;;;;5078677;27;98376;-76
2023/03/11 07:14:42;;;;;;;2.97;1.30;;;;;;;;;;5042416;27;99383;-77
2023/03/11 07:17:09;;;;;;;3.85;1.30;;;;;;;;;;5042744;27;101830;-77
2023/03/11 07:19:42;;;;;;;4.30;1.40;;;;;;;;;;5044087;27;98255;-77
2023/03/11 07:22:08;;;;;;;2.08;1.20;;;;;;;;;;5060818;27;98455;-76
2023/03/11 07:24:35;;;;;;;3.55;1.30;;;;;;;;;;5077246;27;98953;-77
2023/03/11 07:27:01;;;;;;;2.70;1.10;;;;;;;;;;5062154;27;98585;-78
2023/03/11 07:29:28;;;;;;;2.85;1.20;;;;;;;;;;5063108;27;98812;-77
2023/03/11 07:31:54;;;;;;;4.22;1.17;;;;;;;;;;5054718;27;98667;-77
2023/03/11 07:34:21;;;;;;;4.40;1.23;;;;;;;;;;5080157;27;98778;-78
2023/03/11 07:36:47;;;;;;;1.80;1.00;;;;;;;;;;5058184;27;100785;-76
2023/03/11 07:39:15;;;;;;;2.22;1.20;;;;;;;;;;5078402;27;98513;-76
2023/03/11 07:41:42;;;;;;;2.45;1.20;;;;;;;;;;5041713;27;101540;-76
2023/03/11 07:44:10;;;;;;;2.05;1.23;;;;;;;;;;5078390;27;104058;-77
2023/03/11 07:46:36;;;;;;;3.13;1.23;;;;;;;;;;5058538;27;99109;-77
2023/03/11 07:49:03;;;;;;;5.20;1.30;;;;;;;;;;5077907;27;98464;-79
2023/03/11 07:51:31;;;;;;;2.33;1.20;;;;;;;;;;5063380;27;98923;-77
2023/03/11 07:53:58;;;;;;;3.05;1.27;;;;;;;;;;5078507;27;98542;-76
2023/03/11 07:56:26;;;;;;;2.95;1.20;;;;;;;;;;5077981;27;98618;-77
2023/03/11 07:58:53;;;;;;;1.92;1.10;;;;;;;;;;5078087;27;97611;-77
2023/03/11 08:01:21;;;;;;;4.03;1.40;;;;;;;;;;5084576;27;98553;-77
2023/03/11 08:03:48;;;;;;;3.88;1.55;;;;;;;;;;5077609;27;98803;-77
2023/03/11 08:06:17;;;;;;;2.95;1.30;;;;;;;;;;5039237;27;98985;-77
2023/03/11 08:08:44;;;;;;;6.55;1.50;;;;;;;;;;5059343;27;99322;-78
2023/03/11 08:11:14;;;;;;;2.95;1.27;;;;;;;;;;5058975;27;101499;-78
2023/03/11 08:13:41;;;;;;;5.85;1.50;;;;;;;;;;5081697;27;98418;-77
2023/03/11 08:16:08;;;;;;;4.75;1.30;;;;;;;;;;5077682;27;99139;-76
2023/03/11 08:18:35;;;;;;;6.15;1.50;;;;;;;;;;5077646;27;98677;-76
2023/03/11 08:21:06;;;;;;;2.95;1.30;;;;;;;;;;5059089;27;98492;-76
2023/03/11 08:23:33;;;;;;;4.78;1.30;;;;;;;;;;5078031;27;99075;-76
2023/03/11 08:26:07;;;;;;;7.40;1.55;;;;;;;;;;5059607;27;98530;-77
2023/03/11 08:28:33;;;;;;;8.07;1.90;;;;;;;;;;5059512;27;98628;-77
2023/03/11 08:31:00;;;;;;;4.15;1.40;;;;;;;;;;5077661;27;100177;-77
2023/03/11 08:33:26;;;;;;;2.63;1.00;;;;;;;;;;5059540;27;98273;-77
2023/03/11 08:35:53;;;;;;;3.67;1.20;;;;;;;;;;5080761;27;105903;-76
2023/03/11 08:38:20;;;;;;;2.58;1.20;;;;;;;;;;5077793;27;98670;-78
2023/03/11 08:40:46;;;;;;;3.25;1.38;;;;;;;;;;5057857;27;101264;-78
2023/03/11 08:43:13;;;;;;;3.78;1.30;;;;;;;;;;5077334;27;99339;-78
2023/03/11 08:45:40;;;;;;;2.42;1.13;;;;;;;;;;5058823;27;98539;-78
2023/03/11 08:48:09;;;;;;;4.20;1.40;;;;;;;;;;5059538;27;99320;-78
2023/03/11 08:50:36;;;;;;;2.50;1.10;;;;;;;;;;5076275;27;99532;-77
2023/03/11 08:53:19;;;;;;;7.07;1.30;;;;;;;;;;5078143;27;98403;-78
2023/03/11 08:55:45;;;;;;;8.32;1.25;;;;;;;;;;5061858;27;98966;-78
2023/03/11 08:58:12;;;;;;;6.78;1.40;;;;;;;;;;5077382;27;98112;-75
2023/03/11 09:00:38;;;;;;;5.32;1.50;;;;;;;;;;5058839;27;98988;-77
2023/03/11 09:03:05;;;;;;;6.43;1.20;;;;;;;;;;5076891;27;99054;-78
2023/03/11 09:05:32;;;;;;;3.33;1.00;;;;;;;;;;5064338;27;98660;-77
2023/03/11 09:07:58;;;;;;;5.57;1.13;;;;;;;;;;5086389;27;98592;-77
2023/03/11 09:10:25;;;;;;;3.08;1.50;;;;;;;;;;5077154;27;99574;-76
2023/03/11 09:12:51;;;;;;;4.18;1.30;;;;;;;;;;5077171;27;97692;-77
2023/03/11 09:15:18;;;;;;;2.63;1.10;;;;;;;;;;5077291;27;98592;-76
2023/03/11 09:17:44;;;;;;;5.05;1.30;;;;;;;;;;5080287;27;98904;-76
2023/03/11 09:20:12;;;;;;;4.47;1.17;;;;;;;;;;5076207;27;99386;-76
2023/03/11 09:22:38;;;;;;;;;;;;;;;;;;5041797;27;101957;-76
2023/03/11 09:25:05;;;;;;;4.20;1.17;;;;;;;;;;5077775;27;98727;-76
2023/03/11 09:27:31;;;;;;;4.30;1.02;;;;;;;;;;5041633;27;101416;-75
2023/03/11 09:29:58;;;;;;;6.10;1.33;;;;;;;;;;5072389;27;99814;-74
2023/03/11 09:32:24;;;;;;;7.53;1.20;;;;;;;;;;5082813;27;98982;-76
2023/03/11 09:34:50;;;;;;;6.18;1.45;;;;;;;;;;5075429;27;99386;-76
2023/03/11 09:37:17;;;;;;;5.03;1.30;;;;;;;;;;5058084;27;102448;-77
2023/03/11 09:39:43;;;;;;;4.53;1.17;;;;;;;;;;5044221;27;98256;-77
2023/03/11 09:42:13;;;;;;;4.05;1.23;;;;;;;;;;5054361;27;100655;-76
2023/03/11 09:44:44;;;;;;;4.70;1.48;;;;;;;;;;5054949;27;99008;-76
2023/03/11 09:47:27;;;;;;;4.07;1.90;;;;;;;;;;5037891;27;99427;-75
2023/03/11 09:50:14;;;;;;;4.22;1.65;;;;;;;;;;5054089;27;99192;-76
2023/03/11 09:52:59;;;;;;;11.80;4.07;;;;;;;;;;5055953;27;98364;-76
2023/03/11 09:55:30;;;;;;;9.68;2.78;;;;;;;;;;5054712;27;98650;-76
2023/03/11 09:57:58;;;;;;;8.95;2.47;;;;;;;;;;5055491;27;98821;-77
2023/03/11 10:00:24;;;;;;;7.80;2.05;;;;;;;;;;5055983;27;98690;-76
2023/03/11 10:02:51;;;;;;;5.55;1.88;;;;;;;;;;5056629;27;98691;-77
2023/03/11 10:05:20;;;;;;;5.72;1.90;;;;;;;;;;5058990;27;98117;-76
2023/03/11 10:07:51;;;;;;;9.65;2.00;;;;;;;;;;5060329;27;98831;-75
2023/03/11 10:10:18;;;;;;;16.55;2.50;;;;;;;;;;5052188;27;99903;-76
2023/03/11 10:12:57;;;;;;;6.05;1.80;;;;;;;;;;5050948;27;98781;-77
2023/03/11 10:15:24;;;;;;;5.65;1.50;;;;;;;;;;5054063;27;98445;-77
2023/03/11 10:17:50;;;;;;;8.75;1.77;;;;;;;;;;5053323;27;99276;-77
2023/03/11 10:20:26;;;;;;;5.30;1.50;;;;;;;;;;5052753;27;98798;-77
2023/03/11 10:22:59;;;;;;;5.80;1.42;;;;;;;;;;5052177;27;99420;-77
2023/03/11 10:25:32;;;;;;;6.80;1.60;;;;;;;;;;5056127;27;101691;-77
2023/03/11 10:28:01;;;;;;;5.45;1.50;;;;;;;;;;5053566;27;98832;-76
2023/03/11 10:30:33;;;;;;;7.80;1.50;;;;;;;;;;5053000;27;98950;-76
2023/03/11 10:33:06;;;;;;;5.22;1.50;;;;;;;;;;5052841;27;98490;-76
2023/03/11 10:35:35;;;;;;;4.10;1.23;;;;;;;;;;5055261;27;99440;-75
2023/03/11 10:38:06;;;;;;;6.00;1.48;;;;;;;;;;5052887;27;101989;-75
2023/03/11 10:40:39;;;;;;;4.40;1.38;;;;;;;;;;5054194;27;98344;-76
2023/03/11 10:43:10;;;;;;;3.47;1.15;;;;;;;;;;5075124;27;99219;-76
2023/03/11 10:45:40;;;;;;;4.15;1.25;;;;;;;;;;5074722;27;99196;-76
2023/03/11 10:48:10;;;;;;;2.80;1.20;;;;;;;;;;5078600;27;98137;-76
2023/03/11 10:50:41;;;;;;;3.13;1.20;;;;;;;;;;5074005;27;99950;-76
2023/03/11 10:53:09;;;;;;;3.03;1.00;;;;;;;;;;5074598;27;97507;-77
2023/03/11 10:55:44;;;;;;;2.97;1.15;;;;;;;;;;5074318;27;98830;-75
2023/03/11 10:58:15;;;;;;;5.20;1.17;;;;;;;;;;5038457;27;100905;-76
2023/03/11 11:00:42;;;;;;;4.38;1.10;;;;;;;;;;5072568;27;99374;-76
2023/03/11 11:03:15;;;;;;;3.13;1.10;;;;;;;;;;5074451;27;99328;-75
2023/03/11 11:05:42;;;;;;;3.13;1.00;;;;;;;;;;5073919;27;100232;-76
2023/03/11 11:08:15;;;;;;;3.92;1.20;;;;;;;;;;5078797;27;98470;-75
2023/03/11 11:10:49;;;;;;;2.65;0.80;;;;;;;;;;5055781;27;98661;-75
2023/03/11 11:13:17;;;;;;;4.97;1.27;;;;;;;;;;5075433;27;98962;-76
2023/03/11 11:15:58;;;;;;;3.47;0.85;;;;;;;;;;5075415;27;98473;-76
2023/03/11 11:18:28;;;;;;;3.10;1.10;;;;;;;;;;5076033;27;98462;-77
2023/03/11 11:20:56;;;;;;;3.97;1.00;;;;;;;;;;5074879;27;98620;-77
2023/03/11 11:23:25;;;;;;;2.78;0.98;;;;;;;;;;5056181;27;98562;-77
2023/03/11 11:25:56;;;;;;;2.85;1.13;;;;;;;;;;5055226;27;101623;-76
2023/03/11 11:28:23;;;;;;;2.08;0.80;;;;;;;;;;5056745;27;98678;-76
2023/03/11 11:30:52;;;;;;;3.20;0.88;;;;;;;;;;5085503;27;98658;-77
2023/03/11 11:33:22;;;;;;;1.45;0.80;;;;;;;;;;5059864;27;98756;-76
2023/03/11 11:35:50;;;;;;;2.30;1.00;;;;;;;;;;5056657;27;100685;-76
2023/03/11 11:38:16;;;;;;;2.38;0.80;;;;;;;;;;5074395;27;99608;-75
2023/03/11 11:40:43;;;;;;;3.38;0.98;;;;;;;;;;5073449;27;99222;-75
2023/03/11 11:43:13;;;;;;;2.58;0.90;;;;;;;;;;5076204;27;98445;-74
2023/03/11 11:45:41;;;;;;;2.10;0.75;;;;;;;;;;5078390;27;98803;-75
2023/03/11 11:48:15;;;;;;;2.22;0.90;;;;;;;;;;5078521;27;98659;-75
2023/03/11 11:50:49;;;;;;;3.08;0.93;;;;;;;;;;5058773;27;98976;-76
2023/03/11 11:53:19;;;;;;;2.10;0.80;;;;;;;;;;5081376;27;98523;-76
2023/03/11 11:55:47;;;;;;;2.30;0.80;;;;;;;;;;5078676;27;98992;-76
2023/03/11 11:58:13;;;;;;;2.70;0.90;;;;;;;;;;5079484;27;98899;-75
2023/03/11 12:00:45;;;;;;;2.70;0.93;;;;;;;;;;5077385;27;99281;-75
2023/03/11 12:03:17;;;;;;;1.75;0.90;;;;;;;;;;5078633;27;98852;-76
2023/03/11 12:05:50;;;;;;;2.17;0.80;;;;;;;;;;5059704;27;98812;-75
2023/03/11 12:08:24;;;;;;;1.90;0.70;;;;;;;;;;5078421;27;97767;-76
2023/03/11 12:10:50;;;;;;;;;;;;;;;;;;5078027;27;98231;-76
2023/03/11 12:13:35;;;;;;;2.88;0.90;;;;;;;;;;5078338;27;128187;-76
2023/03/11 12:16:02;;;;;;;;;;;;;;;;;;5062674;27;99550;-76
2023/03/11 12:18:34;;;;;;;2.60;0.80;;;;;;;;;;5057353;27;107752;-78
2023/03/11 12:21:07;;;;;;;4.43;1.15;;;;;;;;;;5075154;27;98393;-75
2023/03/11 12:23:49;;;;;;;1.88;0.73;;;;;;;;;;5078154;27;98799;-76
2023/03/11 12:26:20;;;;;;;2.55;0.90;;;;;;;;;;5077108;27;98890;-76
2023/03/11 12:28:49;;;;;;;2.33;0.88;;;;;;;;;;5077344;27;98452;-75
2023/03/11 12:31:16;;;;;;;1.35;0.70;;;;;;;;;;5058470;27;99978;-76
2023/03/11 12:33:50;;;;;;;2.28;0.90;;;;;;;;;;5070709;27;99137;-76
2023/03/11 12:36:24;;;;;;;2.20;0.88;;;;;;;;;;5058469;27;98683;-76
2023/03/11 12:38:52;;;;;;;1.80;0.70;;;;;;;;;;5061518;27;98607;-76
2023/03/11 12:41:37;;;;;;;1.80;0.70;;;;;;;;;;5057419;27;99693;-75
2023/03/11 12:44:20;;;;;;;1.90;0.80;;;;;;;;;;5077556;27;100895;-76
2023/03/11 12:46:58;;;;;;;1.60;0.70;;;;;;;;;;5075938;27;99187;-77
2023/03/11 12:49:32;;;;;;;2.45;0.88;;;;;;;;;;5077562;27;98508;-77
2023/03/11 12:52:01;;;;;;;3.20;0.80;;;;;;;;;;5058971;27;100562;-76
2023/03/11 12:54:33;;;;;;;1.60;0.80;;;;;;;;;;5076227;27;98823;-76
2023/03/11 12:57:07;;;;;;;3.25;0.95;;;;;;;;;;5058303;27;99507;-77
2023/03/11 12:59:52;;;;;;;2.78;0.98;;;;;;;;;;5086622;27;98420;-75
2023/03/11 13:02:37;;;;;;;3.15;1.08;;;;;;;;;;5052897;27;98667;-76
2023/03/11 13:05:03;;;;;;;;;;;;;;;;;;5076750;27;103349;-76
2023/03/11 13:07:35;;;;;;;3.80;1.30;;;;;;;;;;5077368;27;117186;-75
2023/03/11 13:10:03;;;;;;;4.47;1.20;;;;;;;;;;5077356;27;98445;-77
2023/03/11 13:12:42;;;;;;;2.42;1.23;;;;;;;;;;5076026;27;98451;-77
2023/03/11 13:15:20;;;;;;;2.67;1.10;;;;;;;;;;5076273;27;99571;-76
2023/03/11 13:18:13;;;;;;;3.10;1.23;;;;;;;;;;5057736;27;98736;-77
2023/03/11 13:20:43;;;;;;;4.53;1.27;;;;;;;;;;5057277;27;98444;-76
2023/03/11 13:23:12;;;;;;;6.82;1.30;;;;;;;;;;5078899;27;98718;-76
2023/03/11 13:25:52;;;;;;;4.63;1.30;;;;;;;;;;5077462;27;97707;-76
2023/03/11 13:28:38;;;;;;;3.53;1.35;;;;;;;;;;5076547;27;99016;-77
2023/03/11 13:31:05;;;;;;;4.80;1.50;;;;;;;;;;5057846;27;98344;-82
2023/03/11 13:33:35;;;;;;;4.38;1.40;;;;;;;;;;5057316;27;99096;-84
2023/03/11 13:36:08;;;;;;;2.50;1.17;;;;;;;;;;5074956;27;98779;-84
2023/03/11 13:38:46;;;;;;;3.90;1.30;;;;;;;;;;5075354;27;98204;-83
2023/03/11 13:41:15;;;;;;;3.05;1.33;;;;;;;;;;5076769;27;99442;-84
2023/03/11 13:43:44;;;;;;;3.85;1.20;;;;;;;;;;5048512;27;102550;-83
2023/03/11 13:46:21;;;;;;;3.97;1.20;;;;;;;;;;5077637;27;98615;-83
2023/03/11 13:48:49;;;;;;;4.50;1.20;;;;;;;;;;5081008;27;99894;-83
2023/03/11 13:51:15;;;;;;;;;;;;;;;;;;5080655;27;98206;-84
2023/03/11 13:53:55;;;;;;;3.95;1.40;;;;;;;;;;5077703;27;126664;-82
2023/03/11 13:56:24;;;;;;;5.38;1.13;;;;;;;;;;5074736;27;98931;-80
2023/03/11 13:58:51;;;;;;;6.00;1.17;;;;;;;;;;5055483;27;99801;-80
2023/03/11 14:01:18;;;;;;;6.13;1.40;;;;;;;;;;5074085;27;99907;-80
2023/03/11 14:03:45;;;;;;;4.22;1.30;;;;;;;;;;5056150;27;100888;-80
2023/03/11 14:06:14;;;;;;;7.10;1.40;;;;;;;;;;5075105;27;98606;-80
2023/03/11 14:08:54;;;;;;;4.60;1.20;;;;;;;;;;5078000;27;99527;-80
2023/03/11 14:11:25;;;;;;;7.15;1.27;;;;;;;;;;5074666;27;98853;-81
2023/03/11 14:13:52;;;;;;;5.53;1.10;;;;;;;;;;5076487;27;99170;-81
2023/03/11 14:16:21;;;;;;;4.72;1.27;;;;;;;;;;5072456;27;98083;-82
2023/03/11 14:18:59;;;;;;;5.20;1.10;;;;;;;;;;5071798;27;98403;-82
2023/03/11 14:21:27;;;;;;;7.95;1.20;;;;;;;;;;5044320;27;101135;-82
2023/03/11 14:23:54;;;;;;;5.68;1.20;;;;;;;;;;5046428;27;100200;-82
2023/03/11 14:26:20;;;;;;;;;;;;;;;;;;5022990;27;98540;-82
2023/03/11 14:28:51;;;;;;;4.35;1.23;;;;;;;;;;5042763;27;115486;-82
2023/03/11 14:31:30;;;;;;;6.63;1.30;;;;;;;;;;5042945;27;98990;-82
2023/03/11 14:34:12;;;;;;;3.50;0.93;;;;;;;;;;5074780;27;98812;-82
2023/03/11 14:36:43;;;;;;;3.47;0.90;;;;;;;;;;5072128;27;99571;-82
2023/03/11 14:39:22;;;;;;;4.70;1.00;;;;;;;;;;5056296;27;98264;-81
2023/03/11 14:41:51;;;;;;;6.40;1.23;;;;;;;;;;5075864;27;99880;-83
2023/03/11 14:44:18;;;;;;;4.88;0.98;;;;;;;;;;5074922;27;98890;-80
2023/03/11 14:46:45;;;;;;;4.15;1.08;;;;;;;;;;5074978;27;98656;-80
2023/03/11 14:49:15;;;;;;;3.63;1.20;;;;;;;;;;5056541;27;99515;-80
2023/03/11 14:51:41;;;;;;;6.75;1.10;;;;;;;;;;5074678;27;98909;-81
2023/03/11 14:54:28;;;;;;;4.18;1.10;;;;;;;;;;5059853;27;98304;-81